createdAt,value
2022-09-20T00:01:25.827Z,100366.88
2022-09-20T00:03:54.957Z,100370.47
2022-09-20T00:06:23.954Z,100363.78
2022-09-20T00:08:50.700Z,100367.38
2022-09-20T00:11:28.678Z,100366.72
2022-09-20T00:13:56.720Z,100372.78
2022-09-20T00:16:26.597Z,100377.97
2022-09-20T00:18:55.089Z,100376.44
2022-09-20T00:21:24.103Z,100366.50
2022-09-20T00:23:51.950Z,100382.97
2022-09-20T00:26:19.124Z,100378.41
2022-09-20T00:28:47.026Z,100379.38
2022-09-20T00:31:14.249Z,100389.97
2022-09-20T00:33:59.253Z,100385.59
2022-09-20T00:36:27.233Z,100381.34
2022-09-20T00:39:02.956Z,100381.69
2022-09-20T00:41:31.214Z,100372.97
2022-09-20T00:43:58.449Z,100379.22
2022-09-20T00:46:33.717Z,100380.72
2022-09-20T00:49:24.726Z,100382.72
2022-09-20T00:51:57.084Z,100383.00
2022-09-20T00:54:24.023Z,100376.88
2022-09-20T00:56:51.586Z,100379.59
2022-09-20T00:59:23.196Z,100386.44
2022-09-20T01:01:56.652Z,100382.91
2022-09-20T01:04:25.737Z,100381.50
2022-09-20T01:06:54.086Z,100379.16
2022-09-20T01:09:20.597Z,100380.84
2022-09-20T01:11:48.185Z,100374.91
2022-09-20T01:14:16.540Z,100380.09
2022-09-20T01:16:43.175Z,100376.59
2022-09-20T01:19:24.123Z,100373.94
2022-09-20T01:21:51.754Z,100384.56
2022-09-20T01:24:38.480Z,100373.28
2022-09-20T01:27:23.922Z,100382.19
2022-09-20T01:30:09.127Z,100379.53
2022-09-20T01:32:57.995Z,100385.50
2022-09-20T01:35:25.414Z,100377.94
2022-09-20T01:38:20.256Z,100380.50
2022-09-20T01:40:56.789Z,100375.38
2022-09-20T01:43:34.703Z,100370.84
2022-09-20T01:46:08.663Z,100371.69
2022-09-20T01:48:39.987Z,100388.81
2022-09-20T01:51:29.519Z,100382.75
2022-09-20T01:54:26.509Z,100382.56
2022-09-20T01:56:59.401Z,100380.19
2022-09-20T01:59:47.238Z,100390.06
2022-09-20T02:02:37.830Z,100385.81
2022-09-20T02:05:31.832Z,100392.16
2022-09-20T02:08:23.943Z,100399.44
2022-09-20T02:10:50.234Z,100393.66
2022-09-20T02:13:31.042Z,100391.22
2022-09-20T02:16:16.489Z,100396.50
2022-09-20T02:19:25.455Z,100393.97
2022-09-20T02:22:05.529Z,100387.63
2022-09-20T02:24:58.225Z,100388.56
2022-09-20T02:27:33.527Z,100386.00
2022-09-20T02:30:18.895Z,100387.16
2022-09-20T02:33:11.590Z,100390.09
2022-09-20T02:35:50.815Z,100392.94
2022-09-20T02:38:28.108Z,100386.97
2022-09-20T02:41:03.533Z,100394.25
2022-09-20T02:43:53.320Z,100389.34
2022-09-20T02:46:30.878Z,100385.28
2022-09-20T02:49:24.721Z,100389.34
2022-09-20T02:52:07.310Z,100386.09
2022-09-20T02:54:53.546Z,100388.75
2022-09-20T02:57:35.618Z,100386.19
2022-09-20T03:00:27.437Z,100388.84
2022-09-20T03:03:20.419Z,100388.53
2022-09-20T03:05:53.822Z,100390.16
2022-09-20T03:08:33.675Z,100386.00
2022-09-20T03:11:26.607Z,100383.13
2022-09-20T03:14:05.525Z,100393.72
2022-09-20T03:16:59.872Z,100392.78
2022-09-20T03:19:38.756Z,100393.63
2022-09-20T03:22:27.048Z,100408.56
2022-09-20T03:25:30.512Z,100413.06
2022-09-20T03:28:23.202Z,100411.47
2022-09-20T03:31:27.370Z,100418.00
2022-09-20T03:34:12.044Z,100420.78
2022-09-20T03:36:54.160Z,100425.34
2022-09-20T03:39:26.584Z,100425.34
2022-09-20T03:42:08.574Z,100423.44
2022-09-20T03:44:48.815Z,100422.59
2022-09-20T03:47:40.252Z,100410.66
2022-09-20T03:50:24.566Z,100412.81
2022-09-20T03:53:28.463Z,100409.59
2022-09-20T03:56:06.427Z,100410.72
2022-09-20T03:58:51.695Z,100407.16
2022-09-20T04:01:56.711Z,100415.09
2022-09-20T04:04:44.456Z,100405.25
2022-09-20T04:07:17.039Z,100417.63
2022-09-20T04:10:13.698Z,100421.22
2022-09-20T04:13:00.368Z,100415.09
2022-09-20T04:15:32.813Z,100427.34
2022-09-20T04:18:11.799Z,100427.19
2022-09-20T04:20:48.558Z,100424.53
2022-09-20T04:23:45.106Z,100428.03
2022-09-20T04:26:11.697Z,100428.03
2022-09-20T04:28:47.347Z,100428.03
2022-09-20T04:31:30.514Z,100421.78
2022-09-20T04:33:58.360Z,100420.75
2022-09-20T04:36:36.500Z,100426.06
2022-09-20T04:39:42.377Z,100425.97
2022-09-20T04:42:51.703Z,100432.03
2022-09-20T04:45:44.533Z,100433.72
2022-09-20T04:48:38.080Z,100436.53
2022-09-20T04:51:22.740Z,100439.94
2022-09-20T04:54:44.535Z,100443.34
2022-09-20T04:57:47.851Z,100438.81
2022-09-20T05:00:19.276Z,100446.84
2022-09-20T05:03:00.786Z,100453.91
2022-09-20T05:05:48.894Z,100459.31
2022-09-20T05:08:33.890Z,100452.25
2022-09-20T05:11:15.288Z,100459.22
2022-09-20T05:14:12.741Z,100461.94
2022-09-20T05:17:07.230Z,100462.16
2022-09-20T05:20:03.528Z,100456.94
2022-09-20T05:23:01.422Z,100471.00
2022-09-20T05:25:42.928Z,100456.94
2022-09-20T05:28:30.427Z,100455.97
2022-09-20T05:31:11.743Z,100457.69
2022-09-20T05:33:53.427Z,100452.25
2022-09-20T05:36:47.620Z,100458.28
2022-09-20T05:39:32.990Z,100454.69
2022-09-20T05:42:09.460Z,100460.56
2022-09-20T05:44:55.040Z,100463.63
2022-09-20T05:47:35.121Z,100465.25
2022-09-20T05:50:23.474Z,100476.09
2022-09-20T05:53:11.171Z,100487.03
2022-09-20T05:55:49.379Z,100485.31
2022-09-20T05:58:38.843Z,100491.38
2022-09-20T06:01:15.916Z,100499.31
2022-09-20T06:03:47.221Z,100497.44
2022-09-20T06:06:54.970Z,100497.25
2022-09-20T06:09:21.276Z,100497.16
2022-09-20T06:12:15.214Z,100501.78
2022-09-20T06:15:02.484Z,100503.56
2022-09-20T06:17:32.451Z,100498.88
2022-09-20T06:20:05.058Z,100498.31
2022-09-20T06:22:38.088Z,100498.53
2022-09-20T06:25:10.487Z,100499.75
2022-09-20T06:28:07.770Z,100505.72
2022-09-20T06:30:37.225Z,100501.84
2022-09-20T06:33:06.524Z,100493.44
2022-09-20T06:35:44.303Z,100492.31
2022-09-20T06:39:01.578Z,100496.84
2022-09-20T06:41:31.143Z,100496.88
2022-09-20T06:44:02.766Z,100493.75
2022-09-20T06:46:34.297Z,100497.09
2022-09-20T06:49:00.811Z,100504.56
2022-09-20T06:51:29.352Z,100506.16
2022-09-20T06:53:57.105Z,100502.94
2022-09-20T06:56:29.683Z,100506.53
2022-09-20T06:58:56.168Z,100509.66
2022-09-20T07:01:30.123Z,100509.44
2022-09-20T07:03:58.271Z,100508.22
2022-09-20T07:06:24.695Z,100506.25
2022-09-20T07:08:51.095Z,100512.22
2022-09-20T07:11:17.941Z,100511.78
2022-09-20T07:13:45.050Z,100514.28
2022-09-20T07:16:13.947Z,100512.66
2022-09-20T07:18:43.903Z,100511.78
2022-09-20T07:21:15.186Z,100521.34
2022-09-20T07:23:41.918Z,100518.06
2022-09-20T07:26:24.211Z,100519.00
2022-09-20T07:28:50.631Z,100524.31
2022-09-20T07:31:21.134Z,100522.50
2022-09-20T07:33:47.595Z,100527.41
2022-09-20T07:36:14.215Z,100525.31
2022-09-20T07:38:41.929Z,100531.97
2022-09-20T07:41:09.253Z,100529.97
2022-09-20T07:43:35.871Z,100531.47
2022-09-20T07:46:02.543Z,100533.06
2022-09-20T07:48:33.917Z,100542.63
2022-09-20T07:51:08.772Z,100539.97
2022-09-20T07:53:36.205Z,100543.91
2022-09-20T07:56:07.998Z,100543.84
2022-09-20T07:58:35.512Z,100544.59
2022-09-20T08:01:04.943Z,100547.44
2022-09-20T08:03:32.503Z,100552.84
2022-09-20T08:06:18.610Z,100548.28
2022-09-20T08:08:45.279Z,100556.78
2022-09-20T08:11:17.283Z,100555.84
2022-09-20T08:16:39.214Z,100562.09
2022-09-20T08:19:05.743Z,100563.88
2022-09-20T08:21:34.206Z,100555.66
2022-09-20T08:24:00.892Z,100560.94
2022-09-20T08:26:31.014Z,100556.13
2022-09-20T08:28:58.995Z,100554.97
2022-09-20T08:31:28.236Z,100552.69
2022-09-20T08:33:54.841Z,100556.44
2022-09-20T08:36:24.295Z,100556.59
2022-09-20T08:41:45.216Z,100555.81
2022-09-20T08:44:19.748Z,100562.19
2022-09-20T08:46:48.963Z,100554.88
2022-09-20T08:49:27.518Z,100559.69
2022-09-20T08:51:54.706Z,100563.09
2022-09-20T08:54:23.756Z,100560.31
2022-09-20T08:56:51.021Z,100559.78
2022-09-20T08:59:22.443Z,100569.97
2022-09-20T09:01:50.144Z,100561.47
2022-09-20T09:04:17.355Z,100562.00
2022-09-20T09:06:45.079Z,100559.78
2022-09-20T09:09:23.046Z,100552.25
2022-09-20T09:11:50.436Z,100557.91
2022-09-20T09:14:48.370Z,100557.44
2022-09-20T09:17:18.211Z,100559.16
2022-09-20T09:20:21.531Z,100557.78
2022-09-20T09:22:49.630Z,100552.13
2022-09-20T09:25:38.732Z,100553.53
2022-09-20T09:28:07.838Z,100560.56
2022-09-20T09:30:45.231Z,100553.00
2022-09-20T09:33:26.538Z,100560.22
2022-09-20T09:36:05.079Z,100563.22
2022-09-20T09:38:40.052Z,100546.19
2022-09-20T09:41:26.019Z,100541.94
2022-09-20T09:44:20.839Z,100539.38
2022-09-20T09:46:50.022Z,100535.88
2022-09-20T09:49:25.433Z,100536.50
2022-09-20T09:52:13.161Z,100534.38
2022-09-20T09:54:44.486Z,100530.09
2022-09-20T09:57:26.274Z,100539.38
2022-09-20T10:00:20.001Z,100540.22
2022-09-20T10:03:03.872Z,100531.91
2022-09-20T10:05:34.844Z,100529.25
2022-09-20T10:08:09.575Z,100529.25
2022-09-20T10:10:48.334Z,100528.38
2022-09-20T10:13:21.075Z,100527.66
2022-09-20T10:16:03.959Z,100525.72
2022-09-20T10:18:37.871Z,100524.66
2022-09-20T10:21:08.312Z,100519.34
2022-09-20T10:24:03.544Z,100505.72
2022-09-20T10:26:57.673Z,100513.66
2022-09-20T10:29:30.752Z,100511.31
2022-09-20T10:32:14.043Z,100509.09
2022-09-20T10:34:58.767Z,100503.19
2022-09-20T10:37:48.575Z,100509.72
2022-09-20T10:40:15.745Z,100496.41
2022-09-20T10:43:05.736Z,100503.34
2022-09-20T10:46:14.425Z,100499.84
2022-09-20T10:48:48.618Z,100504.31
2022-09-20T10:51:52.907Z,100502.13
2022-09-20T10:54:55.087Z,100516.09
2022-09-20T10:57:46.728Z,100518.72
2022-09-20T11:00:25.224Z,100522.00
2022-09-20T11:03:02.858Z,100530.44
2022-09-20T11:06:01.740Z,100539.72
2022-09-20T11:08:32.442Z,100532.38
2022-09-20T11:11:03.958Z,100535.47
2022-09-20T11:13:46.982Z,100543.31
2022-09-20T11:16:18.535Z,100534.41
2022-09-20T11:19:02.568Z,100530.78
2022-09-20T11:21:36.378Z,100527.69
2022-09-20T11:24:28.103Z,100527.16
2022-09-20T11:27:02.699Z,100530.03
2022-09-20T11:29:50.687Z,100533.44
2022-09-20T11:32:24.792Z,100529.81
2022-09-20T11:34:57.328Z,100533.72
2022-09-20T11:37:31.743Z,100541.16
2022-09-20T11:40:04.642Z,100531.59
2022-09-20T11:42:34.650Z,100534.22
2022-09-20T11:45:01.053Z,100533.03
2022-09-20T11:47:54.871Z,100522.22
2022-09-20T11:50:44.256Z,100531.22
2022-09-20T11:53:46.768Z,100528.63
2022-09-20T11:56:22.084Z,100530.88
2022-09-20T11:58:55.208Z,100536.78
2022-09-20T12:01:28.585Z,100535.50
2022-09-20T12:04:31.719Z,100534.88
2022-09-20T12:07:18.309Z,100535.84
2022-09-20T12:09:57.099Z,100547.69
2022-09-20T12:12:32.068Z,100541.53
2022-09-20T12:15:00.778Z,100546.44
2022-09-20T12:17:59.240Z,100539.25
2022-09-20T12:20:53.242Z,100536.22
2022-09-20T12:23:41.157Z,100535.28
2022-09-20T12:26:10.917Z,100538.63
2022-09-20T12:28:42.130Z,100530.38
2022-09-20T12:31:31.821Z,100534.84
2022-09-20T12:34:12.081Z,100534.66
2022-09-20T12:36:43.271Z,100524.56
2022-09-20T12:39:14.373Z,100526.25
2022-09-20T12:42:07.702Z,100517.94
2022-09-20T12:44:49.338Z,100518.78
2022-09-20T12:47:20.958Z,100512.31
2022-09-20T12:50:06.144Z,100517.50
2022-09-20T12:52:53.225Z,100521.25
2022-09-20T12:55:46.443Z,100509.13
2022-09-20T12:58:33.039Z,100506.97
2022-09-20T13:01:02.251Z,100515.91
2022-09-20T13:03:34.686Z,100516.44
2022-09-20T13:06:22.863Z,100513.09
2022-09-20T13:09:01.524Z,100511.56
2022-09-20T13:11:56.810Z,100504.94
2022-09-20T13:14:31.608Z,100506.31
2022-09-20T13:17:06.626Z,100501.25
2022-09-20T13:19:37.948Z,100499.84
2022-09-20T13:22:22.850Z,100506.00
2022-09-20T13:24:51.677Z,100510.03
2022-09-20T13:27:22.348Z,100506.66
2022-09-20T13:29:49.209Z,100515.91
2022-09-20T13:32:28.366Z,100515.53
2022-09-20T13:35:09.918Z,100511.56
2022-09-20T13:37:45.794Z,100517.28
2022-09-20T13:40:35.318Z,100504.41
2022-09-20T13:43:23.600Z,100503.84
2022-09-20T13:45:56.261Z,100505.13
2022-09-20T13:48:29.740Z,100503.44
2022-09-20T13:50:58.690Z,100502.56
2022-09-20T13:53:42.632Z,100500.75
2022-09-20T13:56:18.407Z,100500.75
2022-09-20T13:58:44.942Z,100495.84
2022-09-20T14:01:33.871Z,100497.13
2022-09-20T14:04:18.291Z,100492.38
2022-09-20T14:06:45.337Z,100491.22
2022-09-20T14:09:28.584Z,100487.94
2022-09-20T14:11:55.992Z,100486.84
2022-09-20T14:14:24.784Z,100490.81
2022-09-20T14:16:52.046Z,100492.31
2022-09-20T14:19:20.251Z,100489.38
2022-09-20T14:21:47.942Z,100492.78
2022-09-20T14:24:14.283Z,100502.09
2022-09-20T14:26:42.211Z,100502.09
2022-09-20T14:29:33.429Z,100502.56
2022-09-20T14:32:01.926Z,100503.19
2022-09-20T14:34:28.591Z,100509.69
2022-09-20T14:37:03.897Z,100500.44
2022-09-20T14:39:30.351Z,100498.16
2022-09-20T14:41:56.938Z,100497.28
2022-09-20T14:44:33.145Z,100495.63
2022-09-20T14:46:59.856Z,100495.38
2022-09-20T14:49:26.151Z,100495.84
2022-09-20T14:51:53.471Z,100491.06
2022-09-20T14:54:30.478Z,100490.56
2022-09-20T14:56:58.169Z,100489.84
2022-09-20T14:59:30.364Z,100481.72
2022-09-20T15:02:01.113Z,100485.41
2022-09-20T15:04:32.603Z,100485.97
2022-09-20T15:07:04.216Z,100480.16
2022-09-20T15:09:31.116Z,100487.81
2022-09-20T15:12:12.162Z,100483.56
2022-09-20T15:14:40.316Z,100478.22
2022-09-20T15:17:07.338Z,100474.34
2022-09-20T15:19:34.310Z,100476.28
2022-09-20T15:22:00.731Z,100476.19
2022-09-20T15:24:27.413Z,100475.91
2022-09-20T15:26:53.982Z,100470.22
2022-09-20T15:29:20.395Z,100474.81
2022-09-20T15:31:48.029Z,100480.88
2022-09-20T15:34:15.008Z,100477.75
2022-09-20T15:36:41.633Z,100479.78
2022-09-20T15:39:08.799Z,100475.31
2022-09-20T15:41:35.857Z,100485.13
2022-09-20T15:44:03.774Z,100478.84
2022-09-20T15:46:31.021Z,100474.25
2022-09-20T15:49:00.192Z,100488.66
2022-09-20T15:51:27.267Z,100477.38
2022-09-20T15:54:06.102Z,100477.84
2022-09-20T15:56:36.721Z,100482.66
2022-09-20T15:59:05.333Z,100480.94
2022-09-20T16:01:35.423Z,100473.91
2022-09-20T16:04:08.408Z,100484.09
2022-09-20T16:19:33.921Z,100488.56
